sensor_id;sensor_type;location;lat;lon;timestamp;pressure;altitude;pressure_sealevel;temperature;humidity
75656;BME280;64252;51.094;13.714;2023-05-07T00:01:48;100830.91;;;9.10;98.55
75656;BME280;64252;51.094;13.714;2023-05-07T00:04:14;100815.50;;;9.04;100.00
75656;BME280;64252;51.094;13.714;2023-05-07T00:06:39;100827.06;;;8.99;100.00
75656;BME280;64252;51.094;13.714;2023-05-07T00:09:06;100830.69;;;8.99;100.00
75656;BME280;64252;51.094;13.714;2023-05-07T00:11:32;100833.13;;;9.01;99.97
75656;BME280;64252;51.094;13.714;2023-05-07T00:13:58;100829.34;;;8.93;100.00
75656;BME280;64252;51.094;13.714;2023-05-07T00:16:24;100842.59;;;8.93;100.00
75656;BME280;64252;51.094;13.714;2023-05-07T00:18:49;100832.44;;;8.88;100.00
75656;BME280;64252;51.094;13.714;2023-05-07T00:21:15;100821.53;;;8.87;100.00
75656;BME280;64252;51.094;13.714;2023-05-07T00:23:41;100824.34;;;8.87;100.00
75656;BME280;64252;51.094;13.714;2023-05-07T00:26:06;100823.16;;;8.88;99.74
75656;BME280;64252;51.094;13.714;2023-05-07T00:28:33;100832.88;;;8.90;99.58
75656;BME280;64252;51.094;13.714;2023-05-07T00:30:59;100820.00;;;8.89;98.95
75656;BME280;64252;51.094;13.714;2023-05-07T00:33:24;100831.34;;;8.93;99.88
75656;BME280;64252;51.094;13.714;2023-05-07T00:35:52;100828.94;;;8.95;99.39
75656;BME280;64252;51.094;13.714;2023-05-07T00:38:18;100827.41;;;8.97;98.54
75656;BME280;64252;51.094;13.714;2023-05-07T00:40:44;100833.13;;;9.01;98.98
75656;BME280;64252;51.094;13.714;2023-05-07T00:43:10;100825.47;;;9.01;98.10
75656;BME280;64252;51.094;13.714;2023-05-07T00:45:36;100832.28;;;9.00;98.27
75656;BME280;64252;51.094;13.714;2023-05-07T00:48:02;100827.47;;;9.01;97.91
75656;BME280;64252;51.094;13.714;2023-05-07T00:50:28;100829.19;;;9.05;98.28
75656;BME280;64252;51.094;13.714;2023-05-07T00:52:54;100826.44;;;9.09;98.31
75656;BME280;64252;51.094;13.714;2023-05-07T00:55:22;100823.19;;;9.07;97.03
75656;BME280;64252;51.094;13.714;2023-05-07T00:57:49;100823.63;;;9.09;97.07
75656;BME280;64252;51.094;13.714;2023-05-07T01:00:15;100820.75;;;9.05;97.38
75656;BME280;64252;51.094;13.714;2023-05-07T01:02:42;100814.75;;;9.07;96.62
75656;BME280;64252;51.094;13.714;2023-05-07T01:05:09;100817.22;;;9.08;97.28
75656;BME280;64252;51.094;13.714;2023-05-07T01:07:36;100815.56;;;9.07;96.44
75656;BME280;64252;51.094;13.714;2023-05-07T01:10:03;100824.44;;;9.09;95.83
75656;BME280;64252;51.094;13.714;2023-05-07T01:12:30;100830.00;;;9.06;95.92
75656;BME280;64252;51.094;13.714;2023-05-07T01:14:56;100824.38;;;9.06;96.58
75656;BME280;64252;51.094;13.714;2023-05-07T01:17:25;100816.69;;;9.03;95.97
75656;BME280;64252;51.094;13.714;2023-05-07T01:19:51;100825.19;;;9.06;96.54
75656;BME280;64252;51.094;13.714;2023-05-07T01:22:39;100830.75;;;9.03;96.58
75656;BME280;64252;51.094;13.714;2023-05-07T01:25:07;100830.09;;;9.09;96.16
75656;BME280;64252;51.094;13.714;2023-05-07T01:27:34;100836.47;;;9.06;96.10
75656;BME280;64252;51.094;13.714;2023-05-07T01:30:01;100840.53;;;9.09;95.23
75656;BME280;64252;51.094;13.714;2023-05-07T01:32:40;100840.72;;;9.16;94.90
75656;BME280;64252;51.094;13.714;2023-05-07T01:35:11;100831.78;;;9.14;94.58
75656;BME280;64252;51.094;13.714;2023-05-07T01:37:38;100833.50;;;9.18;94.48
75656;BME280;64252;51.094;13.714;2023-05-07T01:40:04;100832.63;;;9.14;94.74
75656;BME280;64252;51.094;13.714;2023-05-07T01:42:33;100845.53;;;9.15;95.43
75656;BME280;64252;51.094;13.714;2023-05-07T01:44:59;100835.91;;;9.16;95.12
75656;BME280;64252;51.094;13.714;2023-05-07T01:47:25;100832.63;;;9.14;94.82
75656;BME280;64252;51.094;13.714;2023-05-07T01:49:51;100846.34;;;9.16;94.93
75656;BME280;64252;51.094;13.714;2023-05-07T01:52:17;100842.25;;;9.13;95.60
75656;BME280;64252;51.094;13.714;2023-05-07T01:54:43;100838.19;;;9.11;95.88
75656;BME280;64252;51.094;13.714;2023-05-07T01:57:09;100843.00;;;9.10;94.90
75656;BME280;64252;51.094;13.714;2023-05-07T01:59:35;100839.81;;;9.12;95.46
75656;BME280;64252;51.094;13.714;2023-05-07T02:02:01;100836.53;;;9.10;95.07
75656;BME280;64252;51.094;13.714;2023-05-07T02:04:30;100841.81;;;9.11;96.14
75656;BME280;64252;51.094;13.714;2023-05-07T02:06:56;100830.19;;;9.13;96.13
75656;BME280;64252;51.094;13.714;2023-05-07T02:09:22;100824.56;;;9.13;95.81
75656;BME280;64252;51.094;13.714;2023-05-07T02:11:49;100837.91;;;9.16;95.97
75656;BME280;64252;51.094;13.714;2023-05-07T02:14:17;100844.72;;;9.15;95.68
75656;BME280;64252;51.094;13.714;2023-05-07T02:16:43;100843.88;;;9.14;95.57
75656;BME280;64252;51.094;13.714;2023-05-07T02:19:11;100836.63;;;9.13;94.72
75656;BME280;64252;51.094;13.714;2023-05-07T02:21:37;100843.34;;;9.09;95.17
75656;BME280;64252;51.094;13.714;2023-05-07T02:24:02;100846.16;;;9.09;95.05
75656;BME280;64252;51.094;13.714;2023-05-07T02:26:28;100855.72;;;9.04;94.96
75656;BME280;64252;51.094;13.714;2023-05-07T02:28:54;100861.34;;;9.04;94.88
75656;BME280;64252;51.094;13.714;2023-05-07T02:31:20;100851.66;;;9.02;94.42
75656;BME280;64252;51.094;13.714;2023-05-07T02:36:12;100851.47;;;8.95;95.19
75656;BME280;64252;51.094;13.714;2023-05-07T02:38:49;100852.69;;;8.94;95.73
75656;BME280;64252;51.094;13.714;2023-05-07T02:41:14;100852.22;;;8.92;95.56
75656;BME280;64252;51.094;13.714;2023-05-07T02:43:40;100860.31;;;8.93;95.84
75656;BME280;64252;51.094;13.714;2023-05-07T02:46:07;100863.94;;;8.94;94.69
75656;BME280;64252;51.094;13.714;2023-05-07T02:48:36;100847.41;;;8.92;95.11
75656;BME280;64252;51.094;13.714;2023-05-07T02:51:02;100861.56;;;8.96;94.99
75656;BME280;64252;51.094;13.714;2023-05-07T02:53:28;100858.66;;;8.92;95.23
75656;BME280;64252;51.094;13.714;2023-05-07T02:55:59;100854.59;;;8.90;95.74
75656;BME280;64252;51.094;13.714;2023-05-07T02:58:25;100853.41;;;8.91;94.69
75656;BME280;64252;51.094;13.714;2023-05-07T03:00:52;100851.41;;;8.91;95.55
75656;BME280;64252;51.094;13.714;2023-05-07T03:03:32;100863.78;;;8.87;95.15
75656;BME280;64252;51.094;13.714;2023-05-07T03:05:58;100854.50;;;8.86;94.98
75656;BME280;64252;51.094;13.714;2023-05-07T03:08:24;100859.41;;;8.89;95.36
75656;BME280;64252;51.094;13.714;2023-05-07T03:10:49;100855.41;;;8.90;95.42
75656;BME280;64252;51.094;13.714;2023-05-07T03:13:15;100860.53;;;8.85;95.01
75656;BME280;64252;51.094;13.714;2023-05-07T03:15:41;100856.06;;;8.84;94.81
75656;BME280;64252;51.094;13.714;2023-05-07T03:18:06;100856.34;;;8.78;95.00
75656;BME280;64252;51.094;13.714;2023-05-07T03:20:32;100853.53;;;8.78;95.04
75656;BME280;64252;51.094;13.714;2023-05-07T03:22:58;100855.72;;;8.85;95.66
75656;BME280;64252;51.094;13.714;2023-05-07T03:25:28;100856.34;;;8.78;94.65
75656;BME280;64252;51.094;13.714;2023-05-07T03:27:55;100863.88;;;8.74;94.70
75656;BME280;64252;51.094;13.714;2023-05-07T03:30:24;100865.06;;;8.73;95.38
75656;BME280;64252;51.094;13.714;2023-05-07T03:32:50;100853.81;;;8.73;95.35
75656;BME280;64252;51.094;13.714;2023-05-07T03:35:15;100869.88;;;8.73;95.01
75656;BME280;64252;51.094;13.714;2023-05-07T03:37:42;100867.59;;;8.78;95.20
75656;BME280;64252;51.094;13.714;2023-05-07T03:40:09;100869.94;;;8.76;94.66
75656;BME280;64252;51.094;13.714;2023-05-07T03:42:42;100870.34;;;8.75;94.56
75656;BME280;64252;51.094;13.714;2023-05-07T03:45:08;100864.88;;;8.82;94.53
75656;BME280;64252;51.094;13.714;2023-05-07T03:47:34;100872.50;;;8.81;94.05
75656;BME280;64252;51.094;13.714;2023-05-07T03:50:00;100869.94;;;8.76;94.61
75656;BME280;64252;51.094;13.714;2023-05-07T03:52:26;100873.22;;;8.78;93.80
75656;BME280;64252;51.094;13.714;2023-05-07T03:54:54;100865.69;;;8.82;93.35
75656;BME280;64252;51.094;13.714;2023-05-07T03:57:20;100873.78;;;8.84;93.67
75656;BME280;64252;51.094;13.714;2023-05-07T03:59:46;100870.41;;;8.78;93.54
75656;BME280;64252;51.094;13.714;2023-05-07T04:02:12;100878.41;;;8.76;94.17
75656;BME280;64252;51.094;13.714;2023-05-07T04:04:38;100885.41;;;8.82;93.89
75656;BME280;64252;51.094;13.714;2023-05-07T04:07:04;100873.22;;;8.78;94.01
75656;BME280;64252;51.094;13.714;2023-05-07T04:11:58;100877.56;;;8.92;93.52
75656;BME280;64252;51.094;13.714;2023-05-07T04:14:24;100883.75;;;8.97;94.01
75656;BME280;64252;51.094;13.714;2023-05-07T04:16:50;100878.94;;;8.98;93.51
75656;BME280;64252;51.094;13.714;2023-05-07T04:19:16;100880.47;;;8.95;93.46
75656;BME280;64252;51.094;13.714;2023-05-07T04:21:44;100886.03;;;8.92;93.40
75656;BME280;64252;51.094;13.714;2023-05-07T04:24:10;100885.66;;;8.93;94.63
75656;BME280;64252;51.094;13.714;2023-05-07T04:26:35;100889.31;;;8.94;94.10
75656;BME280;64252;51.094;13.714;2023-05-07T04:29:01;100897.63;;;8.90;94.24
75656;BME280;64252;51.094;13.714;2023-05-07T04:31:31;100903.59;;;8.85;94.15
75656;BME280;64252;51.094;13.714;2023-05-07T04:33:58;100906.63;;;8.96;93.73
75656;BME280;64252;51.094;13.714;2023-05-07T04:36:23;100907.44;;;9.12;93.51
75656;BME280;64252;51.094;13.714;2023-05-07T04:38:58;100906.69;;;9.15;92.09
75656;BME280;64252;51.094;13.714;2023-05-07T04:41:24;100904.88;;;9.22;92.17
75656;BME280;64252;51.094;13.714;2023-05-07T04:43:50;100909.84;;;9.29;91.84
75656;BME280;64252;51.094;13.714;2023-05-07T04:46:20;100911.13;;;9.32;90.70
75656;BME280;64252;51.094;13.714;2023-05-07T04:48:47;100916.91;;;9.39;90.25
75656;BME280;64252;51.094;13.714;2023-05-07T04:51:13;100921.47;;;9.27;90.63
75656;BME280;64252;51.094;13.714;2023-05-07T04:53:39;100929.16;;;9.46;90.55
75656;BME280;64252;51.094;13.714;2023-05-07T04:56:05;100926.09;;;9.36;90.36
75656;BME280;64252;51.094;13.714;2023-05-07T04:58:38;100923.31;;;9.55;89.62
75656;BME280;64252;51.094;13.714;2023-05-07T05:01:04;100918.69;;;9.47;89.37
75656;BME280;64252;51.094;13.714;2023-05-07T05:03:30;100936.59;;;9.54;89.01
75656;BME280;64252;51.094;13.714;2023-05-07T05:05:56;100935.09;;;9.41;89.61
75656;BME280;64252;51.094;13.714;2023-05-07T05:08:27;100936.81;;;9.46;89.38
75656;BME280;64252;51.094;13.714;2023-05-07T05:10:52;100931.78;;;9.55;89.65
75656;BME280;64252;51.094;13.714;2023-05-07T05:13:18;100934.19;;;9.56;89.50
75656;BME280;64252;51.094;13.714;2023-05-07T05:15:44;100932.41;;;9.48;90.14
75656;BME280;64252;51.094;13.714;2023-05-07T05:18:10;100933.78;;;9.54;88.90
75656;BME280;64252;51.094;13.714;2023-05-07T05:20:36;100928.34;;;9.46;90.44
75656;BME280;64252;51.094;13.714;2023-05-07T05:23:02;100928.84;;;9.51;89.49
75656;BME280;64252;51.094;13.714;2023-05-07T05:25:29;100927.56;;;9.84;88.60
75656;BME280;64252;51.094;13.714;2023-05-07T05:27:56;100931.69;;;9.90;87.95
75656;BME280;64252;51.094;13.714;2023-05-07T05:30:22;100934.97;;;10.11;85.95
75656;BME280;64252;51.094;13.714;2023-05-07T05:32:47;100932.47;;;10.48;84.63
75656;BME280;64252;51.094;13.714;2023-05-07T05:35:13;100939.25;;;10.89;84.04
75656;BME280;64252;51.094;13.714;2023-05-07T05:37:40;100953.84;;;10.91;83.76
75656;BME280;64252;51.094;13.714;2023-05-07T05:40:06;100952.31;;;10.51;83.49
75656;BME280;64252;51.094;13.714;2023-05-07T05:42:32;100956.34;;;10.31;83.99
75656;BME280;64252;51.094;13.714;2023-05-07T05:44:58;100948.69;;;10.32;84.11
75656;BME280;64252;51.094;13.714;2023-05-07T05:47:25;100963.63;;;10.32;84.19
75656;BME280;64252;51.094;13.714;2023-05-07T05:49:53;100969.09;;;10.22;85.12
75656;BME280;64252;51.094;13.714;2023-05-07T05:52:19;100966.31;;;10.06;84.31
75656;BME280;64252;51.094;13.714;2023-05-07T05:54:45;100967.03;;;10.03;84.95
75656;BME280;64252;51.094;13.714;2023-05-07T05:57:11;100963.72;;;9.97;85.45
75656;BME280;64252;51.094;13.714;2023-05-07T05:59:37;100970.78;;;9.88;85.85
75656;BME280;64252;51.094;13.714;2023-05-07T06:02:02;100975.38;;;9.96;85.64
75656;BME280;64252;51.094;13.714;2023-05-07T06:04:28;100974.09;;;10.12;84.46
75656;BME280;64252;51.094;13.714;2023-05-07T06:06:55;100977.31;;;10.11;83.30
75656;BME280;64252;51.094;13.714;2023-05-07T06:09:23;100979.31;;;9.91;83.79
75656;BME280;64252;51.094;13.714;2023-05-07T06:11:49;100981.81;;;9.96;83.72
75656;BME280;64252;51.094;13.714;2023-05-07T06:14:15;100992.50;;;9.87;84.90
75656;BME280;64252;51.094;13.714;2023-05-07T06:16:41;100992.81;;;10.01;83.65
75656;BME280;64252;51.094;13.714;2023-05-07T06:19:07;100990.81;;;10.02;84.24
75656;BME280;64252;51.094;13.714;2023-05-07T06:21:33;101000.16;;;9.87;83.82
75656;BME280;64252;51.094;13.714;2023-05-07T06:23:59;101003.41;;;9.89;84.23
75656;BME280;64252;51.094;13.714;2023-05-07T06:26:24;101004.59;;;9.68;85.13
75656;BME280;64252;51.094;13.714;2023-05-07T06:28:51;101005.69;;;9.64;86.19
75656;BME280;64252;51.094;13.714;2023-05-07T06:31:18;101003.22;;;9.62;86.32
75656;BME280;64252;51.094;13.714;2023-05-07T06:33:58;100995.50;;;9.59;86.37
75656;BME280;64252;51.094;13.714;2023-05-07T06:36:30;100992.16;;;9.54;86.92
75656;BME280;64252;51.094;13.714;2023-05-07T06:38:58;101003.34;;;9.50;86.72
75656;BME280;64252;51.094;13.714;2023-05-07T06:41:23;101001.53;;;9.42;87.10
75656;BME280;64252;51.094;13.714;2023-05-07T06:43:49;101003.34;;;9.50;85.22
75656;BME280;64252;51.094;13.714;2023-05-07T06:46:37;101009.00;;;9.50;86.66
75656;BME280;64252;51.094;13.714;2023-05-07T06:49:05;101017.88;;;9.52;86.94
75656;BME280;64252;51.094;13.714;2023-05-07T06:51:30;101025.03;;;9.46;87.46
75656;BME280;64252;51.094;13.714;2023-05-07T06:54:01;101029.56;;;9.35;87.78
75656;BME280;64252;51.094;13.714;2023-05-07T06:56:27;101025.28;;;9.41;87.50
75656;BME280;64252;51.094;13.714;2023-05-07T06:58:53;101022.75;;;9.36;87.24
75656;BME280;64252;51.094;13.714;2023-05-07T07:01:19;101020.28;;;9.50;87.70
75656;BME280;64252;51.094;13.714;2023-05-07T07:03:45;101021.44;;;9.65;87.19
75656;BME280;64252;51.094;13.714;2023-05-07T07:06:11;101025.34;;;9.60;86.85
75656;BME280;64252;51.094;13.714;2023-05-07T07:08:36;101022.06;;;9.58;86.37
75656;BME280;64252;51.094;13.714;2023-05-07T07:11:08;101022.81;;;9.55;86.94
75656;BME280;64252;51.094;13.714;2023-05-07T07:13:34;101015.88;;;9.68;86.52
75656;BME280;64252;51.094;13.714;2023-05-07T07:16:00;101023.53;;;9.87;85.13
75656;BME280;64252;51.094;13.714;2023-05-07T07:18:25;101016.75;;;10.07;84.74
75656;BME280;64252;51.094;13.714;2023-05-07T07:20:52;101020.47;;;10.31;82.72
75656;BME280;64252;51.094;13.714;2023-05-07T07:23:18;101024.72;;;10.40;82.20
75656;BME280;64252;51.094;13.714;2023-05-07T07:25:43;101031.91;;;10.38;82.42
75656;BME280;64252;51.094;13.714;2023-05-07T07:28:10;101024.56;;;10.33;82.37
75656;BME280;64252;51.094;13.714;2023-05-07T07:30:38;101031.25;;;10.25;82.50
75656;BME280;64252;51.094;13.714;2023-05-07T07:33:05;101024.84;;;10.28;81.64
75656;BME280;64252;51.094;13.714;2023-05-07T07:35:35;101024.25;;;10.38;82.38
75656;BME280;64252;51.094;13.714;2023-05-07T07:38:02;101031.78;;;10.31;82.68
75656;BME280;64252;51.094;13.714;2023-05-07T07:40:28;101037.56;;;10.03;81.89
75656;BME280;64252;51.094;13.714;2023-05-07T07:42:54;101045.44;;;9.94;82.74
75656;BME280;64252;51.094;13.714;2023-05-07T07:45:21;101035.97;;;10.02;83.21
75656;BME280;64252;51.094;13.714;2023-05-07T07:47:48;101042.50;;;10.06;82.69
75656;BME280;64252;51.094;13.714;2023-05-07T07:50:14;101048.72;;;9.96;83.03
75656;BME280;64252;51.094;13.714;2023-05-07T07:52:39;101043.34;;;9.91;82.72
75656;BME280;64252;51.094;13.714;2023-05-07T07:55:07;101055.47;;;9.91;82.49
75656;BME280;64252;51.094;13.714;2023-05-07T07:57:33;101042.09;;;9.88;83.02
75656;BME280;64252;51.094;13.714;2023-05-07T07:59:59;101051.53;;;9.96;82.36
75656;BME280;64252;51.094;13.714;2023-05-07T08:02:26;101043.06;;;9.96;82.41
75656;BME280;64252;51.094;13.714;2023-05-07T08:04:52;101048.72;;;9.96;82.60
75656;BME280;64252;51.094;13.714;2023-05-07T08:07:18;101053.78;;;10.06;83.27
75656;BME280;64252;51.094;13.714;2023-05-07T08:09:47;101049.59;;;10.00;83.05
75656;BME280;64252;51.094;13.714;2023-05-07T08:12:14;101063.94;;;9.91;83.71
75656;BME280;64252;51.094;13.714;2023-05-07T08:14:40;101064.00;;;9.95;82.85
75656;BME280;64252;51.094;13.714;2023-05-07T08:17:08;101065.03;;;9.87;83.31
75656;BME280;64252;51.094;13.714;2023-05-07T08:19:36;101067.66;;;9.95;83.85
75656;BME280;64252;51.094;13.714;2023-05-07T08:22:03;101067.72;;;9.99;84.02
75656;BME280;64252;51.094;13.714;2023-05-07T08:24:33;101070.53;;;9.99;82.75
75656;BME280;64252;51.094;13.714;2023-05-07T08:27:02;101076.78;;;10.24;80.54
75656;BME280;64252;51.094;13.714;2023-05-07T08:29:41;101074.31;;;10.22;80.66
75656;BME280;64252;51.094;13.714;2023-05-07T08:32:07;101084.00;;;10.21;80.16
75656;BME280;64252;51.094;13.714;2023-05-07T08:34:33;101069.28;;;10.50;78.96
75656;BME280;64252;51.094;13.714;2023-05-07T08:37:01;101066.97;;;10.56;79.20
75656;BME280;64252;51.094;13.714;2023-05-07T08:39:28;101062.88;;;10.73;78.77
75656;BME280;64252;51.094;13.714;2023-05-07T08:41:55;101065.69;;;10.73;78.81
75656;BME280;64252;51.094;13.714;2023-05-07T08:44:27;101069.78;;;10.75;78.38
75656;BME280;64252;51.094;13.714;2023-05-07T08:46:56;101065.00;;;10.79;77.81
75656;BME280;64252;51.094;13.714;2023-05-07T08:49:23;101067.72;;;10.72;79.78
75656;BME280;64252;51.094;13.714;2023-05-07T08:51:52;101061.06;;;10.84;78.22
75656;BME280;64252;51.094;13.714;2023-05-07T08:54:22;101069.56;;;10.65;78.57
75656;BME280;64252;51.094;13.714;2023-05-07T08:56:52;101081.13;;;10.79;78.12
75656;BME280;64252;51.094;13.714;2023-05-07T08:59:18;101072.16;;;11.15;76.64
75656;BME280;64252;51.094;13.714;2023-05-07T09:01:44;101083.38;;;11.12;76.55
75656;BME280;64252;51.094;13.714;2023-05-07T09:04:11;101081.31;;;11.31;75.30
75656;BME280;64252;51.094;13.714;2023-05-07T09:06:39;101078.78;;;11.26;76.23
75656;BME280;64252;51.094;13.714;2023-05-07T09:09:09;101083.78;;;11.33;76.18
75656;BME280;64252;51.094;13.714;2023-05-07T09:11:38;101088.47;;;11.48;75.79
75656;BME280;64252;51.094;13.714;2023-05-07T09:14:04;101087.59;;;11.44;74.92
75656;BME280;64252;51.094;13.714;2023-05-07T09:16:35;101087.97;;;11.42;75.34
75656;BME280;64252;51.094;13.714;2023-05-07T09:19:01;101092.25;;;11.56;74.47
75656;BME280;64252;51.094;13.714;2023-05-07T09:21:27;101086.34;;;11.41;74.93
75656;BME280;64252;51.094;13.714;2023-05-07T09:23:58;101097.88;;;11.78;73.57
75656;BME280;64252;51.094;13.714;2023-05-07T09:26:32;101091.91;;;11.61;73.50
75656;BME280;64252;51.094;13.714;2023-05-07T09:28:59;101096.06;;;11.67;73.87
75656;BME280;64252;51.094;13.714;2023-05-07T09:31:26;101100.41;;;11.61;73.27
75656;BME280;64252;51.094;13.714;2023-05-07T09:33:53;101095.91;;;11.33;75.13
75656;BME280;64252;51.094;13.714;2023-05-07T09:36:22;101100.06;;;10.97;77.99
75656;BME280;64252;51.094;13.714;2023-05-07T09:38:49;101102.03;;;11.16;76.71
75656;BME280;64252;51.094;13.714;2023-05-07T09:41:16;101100.53;;;11.22;77.92
75656;BME280;64252;51.094;13.714;2023-05-07T09:43:56;101103.75;;;11.43;74.52
75656;BME280;64252;51.094;13.714;2023-05-07T09:46:30;101098.28;;;11.31;75.47
75656;BME280;64252;51.094;13.714;2023-05-07T09:49:02;101095.19;;;11.17;75.21
75656;BME280;64252;51.094;13.714;2023-05-07T09:51:34;101096.25;;;11.55;74.20
75656;BME280;64252;51.094;13.714;2023-05-07T09:54:04;101100.50;;;11.68;74.48
75656;BME280;64252;51.094;13.714;2023-05-07T09:56:33;101107.56;;;11.55;75.33
75656;BME280;64252;51.094;13.714;2023-05-07T09:59:00;101101.09;;;11.54;74.59
75656;BME280;64252;51.094;13.714;2023-05-07T10:01:31;101107.28;;;11.37;75.04
75656;BME280;64252;51.094;13.714;2023-05-07T10:04:02;101089.28;;;11.71;74.09
75656;BME280;64252;51.094;13.714;2023-05-07T10:06:30;101101.50;;;11.75;73.58
75656;BME280;64252;51.094;13.714;2023-05-07T10:08:56;101106.59;;;11.93;72.70
75656;BME280;64252;51.094;13.714;2023-05-07T10:11:22;101119.56;;;11.71;73.96
75656;BME280;64252;51.094;13.714;2023-05-07T10:13:49;101102.81;;;11.81;73.44
75656;BME280;64252;51.094;13.714;2023-05-07T10:16:16;101104.94;;;12.14;71.93
75656;BME280;64252;51.094;13.714;2023-05-07T10:18:46;101104.34;;;12.31;70.28
75656;BME280;64252;51.094;13.714;2023-05-07T10:21:21;101100.00;;;12.38;70.21
75656;BME280;64252;51.094;13.714;2023-05-07T10:23:54;101106.50;;;12.42;68.97
75656;BME280;64252;51.094;13.714;2023-05-07T10:26:25;101110.81;;;12.62;68.92
75656;BME280;64252;51.094;13.714;2023-05-07T10:28:56;101106.88;;;12.40;69.39
75656;BME280;64252;51.094;13.714;2023-05-07T10:31:38;101104.03;;;12.10;70.51
75656;BME280;64252;51.094;13.714;2023-05-07T10:34:11;101107.31;;;11.86;70.53
75656;BME280;64252;51.094;13.714;2023-05-07T10:36:39;101103.28;;;11.87;71.52
75656;BME280;64252;51.094;13.714;2023-05-07T10:39:06;101098.47;;;12.17;70.91
75656;BME280;64252;51.094;13.714;2023-05-07T10:41:32;101090.44;;;12.53;69.26
75656;BME280;64252;51.094;13.714;2023-05-07T10:43:59;101094.69;;;12.66;68.02
75656;BME280;64252;51.094;13.714;2023-05-07T10:46:31;101099.22;;;13.07;67.49
75656;BME280;64252;51.094;13.714;2023-05-07T10:49:09;101099.06;;;13.74;65.74
75656;BME280;64252;51.094;13.714;2023-05-07T10:52:13;101088.88;;;14.31;62.80
75656;BME280;64252;51.094;13.714;2023-05-07T10:57:43;101075.84;;;14.27;63.13
75656;BME280;64252;51.094;13.714;2023-05-07T11:05:31;101087.59;;;13.19;66.79
75656;BME280;64252;51.094;13.714;2023-05-07T11:08:19;101084.19;;;13.44;66.56
75656;BME280;64252;51.094;13.714;2023-05-07T11:10:57;101086.94;;;13.81;64.87
75656;BME280;64252;51.094;13.714;2023-05-07T11:16:23;101076.63;;;14.17;62.45
75656;BME280;64252;51.094;13.714;2023-05-07T11:18:56;101078.13;;;13.96;64.25
75656;BME280;64252;51.094;13.714;2023-05-07T11:21:36;101079.72;;;14.63;62.92
75656;BME280;64252;51.094;13.714;2023-05-07T11:24:22;101069.63;;;14.72;61.68
75656;BME280;64252;51.094;13.714;2023-05-07T11:27:01;101060.75;;;14.91;61.33
75656;BME280;64252;51.094;13.714;2023-05-07T11:29:29;101072.56;;;14.18;62.73
75656;BME280;64252;51.094;13.714;2023-05-07T11:32:06;101071.72;;;14.14;62.15
75656;BME280;64252;51.094;13.714;2023-05-07T11:34:40;101059.50;;;14.02;62.82
75656;BME280;64252;51.094;13.714;2023-05-07T11:37:07;101068.94;;;14.17;63.22
75656;BME280;64252;51.094;13.714;2023-05-07T11:40:02;101073.19;;;13.86;63.63
75656;BME280;64252;51.094;13.714;2023-05-07T11:42:39;101072.47;;;13.49;64.11
75656;BME280;64252;51.094;13.714;2023-05-07T11:45:07;101072.13;;;13.54;64.99
75656;BME280;64252;51.094;13.714;2023-05-07T11:47:33;101071.41;;;13.64;64.93
75656;BME280;64252;51.094;13.714;2023-05-07T11:50:07;101067.28;;;13.58;64.46
75656;BME280;64252;51.094;13.714;2023-05-07T11:52:33;101069.75;;;13.59;64.70
75656;BME280;64252;51.094;13.714;2023-05-07T11:55:00;101079.69;;;13.87;64.47
75656;BME280;64252;51.094;13.714;2023-05-07T11:57:27;101076.50;;;13.95;66.39
75656;BME280;64252;51.094;13.714;2023-05-07T11:59:57;101077.22;;;13.82;64.47
75656;BME280;64252;51.094;13.714;2023-05-07T12:02:23;101075.31;;;13.49;64.50
75656;BME280;64252;51.094;13.714;2023-05-07T12:04:53;101079.56;;;13.69;64.33
75656;BME280;64252;51.094;13.714;2023-05-07T12:07:20;101083.38;;;13.94;65.08
75656;BME280;64252;51.094;13.714;2023-05-07T12:09:46;101077.16;;;13.75;65.05
75656;BME280;64252;51.094;13.714;2023-05-07T12:12:13;101076.00;;;13.83;66.18
75656;BME280;64252;51.094;13.714;2023-05-07T12:14:42;101089.31;;;13.75;66.21
75656;BME280;64252;51.094;13.714;2023-05-07T12:17:11;101080.06;;;13.38;66.43
75656;BME280;64252;51.094;13.714;2023-05-07T12:19:38;101082.69;;;13.57;66.29
75656;BME280;64252;51.094;13.714;2023-05-07T12:22:05;101078.38;;;13.77;66.38
75656;BME280;64252;51.094;13.714;2023-05-07T12:25:02;101091.13;;;13.97;64.87
75656;BME280;64252;51.094;13.714;2023-05-07T12:27:28;101081.38;;;13.98;64.49
75656;BME280;64252;51.094;13.714;2023-05-07T12:29:54;101086.94;;;13.81;64.69
75656;BME280;64252;51.094;13.714;2023-05-07T12:32:21;101085.78;;;13.89;64.56
75656;BME280;64252;51.094;13.714;2023-05-07T12:34:49;101094.41;;;14.03;63.35
75656;BME280;64252;51.094;13.714;2023-05-07T12:37:15;101095.06;;;14.44;64.69
75656;BME280;64252;51.094;13.714;2023-05-07T12:39:47;101097.38;;;14.28;62.16
75656;BME280;64252;51.094;13.714;2023-05-07T12:42:20;101097.22;;;14.68;62.10
75656;BME280;64252;51.094;13.714;2023-05-07T12:44:51;101095.47;;;14.46;62.72
75656;BME280;64252;51.094;13.714;2023-05-07T12:47:17;101087.81;;;14.57;62.08
75656;BME280;64252;51.094;13.714;2023-05-07T12:49:43;101092.81;;;14.85;61.92
75656;BME280;64252;51.094;13.714;2023-05-07T12:52:11;101088.19;;;14.52;61.87
75656;BME280;64252;51.094;13.714;2023-05-07T12:54:37;101092.69;;;14.60;61.89
75656;BME280;64252;51.094;13.714;2023-05-07T12:57:08;101081.00;;;14.76;61.76
75656;BME280;64252;51.094;13.714;2023-05-07T12:59:41;101074.25;;;15.51;61.05
75656;BME280;64252;51.094;13.714;2023-05-07T13:02:08;101074.66;;;15.71;61.17
75656;BME280;64252;51.094;13.714;2023-05-07T13:04:35;101068.56;;;15.55;59.60
75656;BME280;64252;51.094;13.714;2023-05-07T13:07:01;101076.66;;;16.02;59.97